createdAt,value
2023-01-19T00:01:14.613Z,14.40
2023-01-19T00:03:43.267Z,14.45
2023-01-19T00:06:12.060Z,18.33
2023-01-19T00:08:40.538Z,16.48
2023-01-19T00:11:08.861Z,15.15
2023-01-19T00:13:38.118Z,13.48
2023-01-19T00:16:08.745Z,14.30
2023-01-19T00:18:36.935Z,15.43
2023-01-19T00:21:05.548Z,17.83
2023-01-19T00:23:33.749Z,16.92
2023-01-19T00:26:01.946Z,15.02
2023-01-19T00:28:30.164Z,17.98
2023-01-19T00:30:58.433Z,15.85
2023-01-19T00:33:51.642Z,15.20
2023-01-19T00:36:20.650Z,14.30
2023-01-19T00:38:49.284Z,12.20
2023-01-19T00:41:17.892Z,15.40
2023-01-19T00:43:45.554Z,17.13
2023-01-19T00:46:15.612Z,20.08
2023-01-19T00:48:49.975Z,17.42
2023-01-19T00:51:18.388Z,18.10
2023-01-19T00:57:36.830Z,23.10
2023-01-19T01:00:07.243Z,14.23
2023-01-19T01:02:36.794Z,16.13
2023-01-19T01:05:08.579Z,20.17
2023-01-19T01:07:40.796Z,13.88
2023-01-19T01:10:11.744Z,13.75
2023-01-19T01:12:41.305Z,15.85
2023-01-19T01:15:23.948Z,15.05
2023-01-19T01:17:53.096Z,17.15
2023-01-19T01:20:27.145Z,18.55
2023-01-19T01:22:57.804Z,16.98
2023-01-19T01:25:28.589Z,16.40
2023-01-19T01:27:56.866Z,15.48
2023-01-19T01:30:25.433Z,17.77
2023-01-19T01:32:53.683Z,14.05
2023-01-19T01:35:23.373Z,22.40
2023-01-19T01:37:51.701Z,15.68
2023-01-19T01:40:20.815Z,15.27
2023-01-19T01:42:49.021Z,13.52
2023-01-19T01:45:33.872Z,14.63
2023-01-19T01:48:09.732Z,17.45
2023-01-19T01:51:06.803Z,16.25
2023-01-19T01:53:37.571Z,14.57
2023-01-19T01:56:11.328Z,15.63
2023-01-19T01:58:41.171Z,16.13
2023-01-19T02:01:29.145Z,16.38
2023-01-19T02:03:58.747Z,11.38
2023-01-19T02:06:28.642Z,13.70
2023-01-19T02:09:19.740Z,12.93
2023-01-19T02:12:06.225Z,14.50
2023-01-19T02:14:37.411Z,17.13
2023-01-19T02:17:05.889Z,13.13
2023-01-19T02:19:40.375Z,20.42
2023-01-19T02:22:17.834Z,11.32
2023-01-19T02:24:49.955Z,15.73
2023-01-19T02:27:18.993Z,12.10
2023-01-19T02:29:47.455Z,15.57
2023-01-19T02:32:15.908Z,14.63
2023-01-19T02:34:44.284Z,14.68
2023-01-19T02:37:15.768Z,19.50
2023-01-19T02:39:51.277Z,17.05
2023-01-19T02:42:23.851Z,14.70
2023-01-19T02:44:55.849Z,14.25
2023-01-19T02:47:24.527Z,16.75
2023-01-19T02:49:57.550Z,17.13
2023-01-19T02:52:26.770Z,15.27
2023-01-19T02:55:05.962Z,13.00
2023-01-19T02:57:49.910Z,14.75
2023-01-19T03:00:34.158Z,15.77
2023-01-19T03:03:23.837Z,13.20
2023-01-19T03:05:59.109Z,15.23
2023-01-19T03:08:44.923Z,18.02
2023-01-19T03:11:16.076Z,13.07
2023-01-19T03:13:50.062Z,16.05
2023-01-19T03:16:23.030Z,17.88
2023-01-19T03:18:55.977Z,13.32
2023-01-19T03:21:31.435Z,23.40
2023-01-19T03:24:04.300Z,15.70
2023-01-19T03:26:40.168Z,13.10
2023-01-19T03:29:11.646Z,13.98
2023-01-19T03:31:41.531Z,18.83
2023-01-19T03:34:13.353Z,13.65
2023-01-19T03:36:46.035Z,17.98
2023-01-19T03:39:20.347Z,17.95
2023-01-19T03:41:53.390Z,16.83
2023-01-19T03:44:21.751Z,15.15
2023-01-19T03:46:50.430Z,18.83
2023-01-19T03:49:19.512Z,13.27
2023-01-19T03:51:48.262Z,20.63
2023-01-19T03:54:16.453Z,13.35
2023-01-19T03:56:44.817Z,15.68
2023-01-19T03:59:17.532Z,14.65
2023-01-19T04:01:46.048Z,15.85
2023-01-19T04:04:15.552Z,15.75
2023-01-19T04:06:44.503Z,14.70
2023-01-19T04:09:12.851Z,17.20
2023-01-19T04:11:41.197Z,14.50
2023-01-19T04:14:09.417Z,17.60
2023-01-19T04:16:39.081Z,16.38
2023-01-19T04:19:07.368Z,12.10
2023-01-19T04:21:35.896Z,18.73
2023-01-19T04:24:04.401Z,21.13
2023-01-19T04:26:32.827Z,16.73
2023-01-19T04:29:01.133Z,12.13
2023-01-19T04:31:29.930Z,15.70
2023-01-19T04:33:59.973Z,16.20
2023-01-19T04:36:28.498Z,16.10
2023-01-19T04:38:56.720Z,21.63
2023-01-19T04:41:25.082Z,14.02
2023-01-19T04:43:53.401Z,18.23
2023-01-19T04:46:21.560Z,18.20
2023-01-19T04:48:49.844Z,11.95
2023-01-19T04:51:19.462Z,12.50
2023-01-19T04:53:47.794Z,13.35
2023-01-19T04:56:16.182Z,15.40
2023-01-19T04:58:44.446Z,18.33
2023-01-19T05:01:12.850Z,58.85
2023-01-19T05:03:41.328Z,25.42
2023-01-19T05:06:09.811Z,30.98
2023-01-19T05:08:39.569Z,20.48
2023-01-19T05:11:08.120Z,21.58
2023-01-19T05:13:36.502Z,22.90
2023-01-19T05:16:06.230Z,15.10
2023-01-19T05:18:37.072Z,17.25
2023-01-19T05:21:06.312Z,15.80
2023-01-19T05:23:34.956Z,16.55
2023-01-19T05:26:06.816Z,16.00
2023-01-19T05:28:35.915Z,16.73
2023-01-19T05:31:04.559Z,17.92
2023-01-19T05:33:33.033Z,16.40
2023-01-19T05:36:01.513Z,15.85
2023-01-19T05:38:35.401Z,18.02
2023-01-19T05:41:05.820Z,13.75
2023-01-19T05:43:34.220Z,18.45
2023-01-19T05:46:03.899Z,19.77
2023-01-19T05:48:32.382Z,18.75
2023-01-19T05:51:01.587Z,15.13
2023-01-19T05:53:30.374Z,17.83
2023-01-19T05:56:02.253Z,14.18
2023-01-19T05:58:34.329Z,15.25
2023-01-19T06:01:05.809Z,15.93
2023-01-19T06:03:35.464Z,15.70
2023-01-19T06:06:04.976Z,17.88
2023-01-19T06:08:33.615Z,15.60
2023-01-19T06:11:02.004Z,17.17
2023-01-19T06:13:31.750Z,14.98
2023-01-19T06:16:00.596Z,16.13
2023-01-19T06:18:29.563Z,17.15
2023-01-19T06:20:59.595Z,13.18
2023-01-19T06:23:28.387Z,17.50
2023-01-19T06:25:56.895Z,15.10
2023-01-19T06:28:25.711Z,14.98
2023-01-19T06:30:57.463Z,14.52
2023-01-19T06:33:27.840Z,17.77
2023-01-19T06:35:57.189Z,15.48
2023-01-19T06:38:25.512Z,16.55
2023-01-19T06:40:55.555Z,17.40
2023-01-19T06:43:24.145Z,17.35
2023-01-19T06:45:53.478Z,14.70
2023-01-19T06:48:23.802Z,15.35
2023-01-19T06:50:52.436Z,14.95
2023-01-19T06:53:22.288Z,15.13
2023-01-19T06:55:50.774Z,13.93
2023-01-19T06:58:19.499Z,15.25
2023-01-19T07:00:48.912Z,70.18
2023-01-19T07:03:21.743Z,37.53
2023-01-19T07:05:54.948Z,16.45
2023-01-19T07:08:23.560Z,14.93
2023-01-19T07:11:26.030Z,13.30
2023-01-19T07:13:41.621Z,17.63
2023-01-19T07:16:12.442Z,13.60
2023-01-19T07:18:41.958Z,12.00
2023-01-19T07:21:11.553Z,14.52
2023-01-19T07:23:39.884Z,17.48
2023-01-19T07:26:08.174Z,15.93
2023-01-19T07:28:37.046Z,13.82
2023-01-19T07:31:05.759Z,13.18
2023-01-19T07:33:34.267Z,15.57
2023-01-19T07:36:02.671Z,13.73
2023-01-19T07:38:32.600Z,19.77
2023-01-19T07:41:05.515Z,15.65
2023-01-19T07:43:34.438Z,14.30
2023-01-19T07:46:07.024Z,16.52
2023-01-19T07:48:35.573Z,10.25
2023-01-19T07:51:10.424Z,13.25
2023-01-19T07:53:42.375Z,12.23
2023-01-19T07:56:11.296Z,15.55
2023-01-19T07:58:39.832Z,13.98
2023-01-19T08:01:09.495Z,13.95
2023-01-19T08:03:38.515Z,13.05
2023-01-19T08:06:08.126Z,15.05
2023-01-19T08:08:36.526Z,11.23
2023-01-19T08:11:06.637Z,18.42
2023-01-19T08:13:35.053Z,13.75
2023-01-19T08:16:03.457Z,11.77
2023-01-19T08:18:31.767Z,14.00
2023-01-19T08:21:00.455Z,14.75
2023-01-19T08:23:29.373Z,15.23
2023-01-19T08:25:57.636Z,11.65
2023-01-19T08:28:27.486Z,9.75
2023-01-19T08:30:56.091Z,15.15
2023-01-19T08:33:25.600Z,12.45
2023-01-19T08:35:55.260Z,8.90
2023-01-19T08:38:24.724Z,12.38
2023-01-19T08:40:53.349Z,10.02
2023-01-19T08:43:21.658Z,14.02
2023-01-19T08:45:53.913Z,11.50
2023-01-19T08:48:25.090Z,13.40
2023-01-19T08:50:54.541Z,13.50
2023-01-19T08:53:24.131Z,13.30
2023-01-19T08:55:55.844Z,14.98
2023-01-19T08:58:24.969Z,10.98
2023-01-19T09:00:54.954Z,11.52
2023-01-19T09:03:23.840Z,15.02
2023-01-19T09:05:52.303Z,10.52
2023-01-19T09:08:22.160Z,9.98
2023-01-19T09:10:52.785Z,12.50
2023-01-19T09:13:21.932Z,12.57
2023-01-19T09:15:51.049Z,14.98
2023-01-19T09:18:23.147Z,9.38
2023-01-19T09:20:52.380Z,10.52
2023-01-19T09:23:22.539Z,11.73
2023-01-19T09:25:57.751Z,12.07
2023-01-19T09:28:26.811Z,16.27
2023-01-19T09:30:55.337Z,13.43
2023-01-19T09:33:25.753Z,11.10
2023-01-19T09:35:54.019Z,12.50
2023-01-19T09:38:23.923Z,14.57
2023-01-19T09:40:56.070Z,10.43
2023-01-19T09:43:37.946Z,10.85
2023-01-19T09:46:13.682Z,9.95
2023-01-19T09:48:48.587Z,12.35
2023-01-19T09:51:20.968Z,8.48
2023-01-19T09:54:07.682Z,10.13
2023-01-19T09:56:36.202Z,10.10
2023-01-19T09:59:22.367Z,9.40
2023-01-19T10:02:19.882Z,9.38
2023-01-19T10:05:00.339Z,10.80
2023-01-19T10:07:53.385Z,12.25
2023-01-19T10:10:25.751Z,10.75
2023-01-19T10:13:10.572Z,9.88
2023-01-19T10:15:50.367Z,12.57
2023-01-19T10:18:25.239Z,7.90
2023-01-19T10:23:49.265Z,8.07
2023-01-19T10:26:22.158Z,9.07
2023-01-19T10:28:54.804Z,10.15
2023-01-19T10:31:25.907Z,9.27
2023-01-19T10:33:55.133Z,14.57
2023-01-19T10:36:30.852Z,14.25
2023-01-19T10:38:59.665Z,10.90
2023-01-19T10:41:42.824Z,10.73
2023-01-19T10:44:12.417Z,11.15
2023-01-19T10:46:45.615Z,8.75
2023-01-19T10:49:28.808Z,15.88
2023-01-19T10:52:00.301Z,10.88
2023-01-19T10:54:31.809Z,7.72
2023-01-19T10:57:03.468Z,10.65
2023-01-19T10:59:38.403Z,8.40
2023-01-19T11:02:20.203Z,9.40
2023-01-19T11:04:52.871Z,10.85
2023-01-19T11:07:25.267Z,8.77
2023-01-19T11:10:21.888Z,14.50
2023-01-19T11:13:02.368Z,16.38
2023-01-19T11:15:35.614Z,14.52
2023-01-19T11:18:06.328Z,11.73
2023-01-19T11:20:52.344Z,14.35
2023-01-19T11:23:28.209Z,11.30
2023-01-19T11:26:01.223Z,10.30
2023-01-19T11:28:35.594Z,7.90
2023-01-19T11:31:18.454Z,13.10
2023-01-19T11:33:53.203Z,9.25
2023-01-19T11:36:23.891Z,14.77
2023-01-19T11:38:56.744Z,6.72
2023-01-19T11:41:30.123Z,8.85
2023-01-19T11:44:03.232Z,12.82
2023-01-19T11:46:35.252Z,9.85
2023-01-19T11:49:06.788Z,9.98
2023-01-19T11:51:42.905Z,11.43
2023-01-19T11:54:23.636Z,11.40
2023-01-19T11:56:53.187Z,14.77
2023-01-19T11:59:24.847Z,11.35
2023-01-19T12:01:57.916Z,8.52
2023-01-19T12:04:30.733Z,7.50
2023-01-19T12:07:07.554Z,13.98
2023-01-19T12:09:43.635Z,9.32
2023-01-19T12:12:19.309Z,10.02
2023-01-19T12:14:58.495Z,8.05
2023-01-19T12:17:29.980Z,10.57
2023-01-19T12:20:07.516Z,14.63
2023-01-19T12:22:49.498Z,12.38
2023-01-19T12:25:23.969Z,13.70
2023-01-19T12:27:54.333Z,8.48
2023-01-19T12:30:26.058Z,11.73
2023-01-19T12:33:39.767Z,8.63
2023-01-19T12:36:14.141Z,8.73
2023-01-19T12:38:47.731Z,5.10
2023-01-19T12:41:27.657Z,7.03
2023-01-19T12:44:23.662Z,6.97
2023-01-19T12:46:55.964Z,7.28
2023-01-19T12:49:33.624Z,6.95
2023-01-19T12:52:28.010Z,6.15
2023-01-19T12:55:16.843Z,8.35
2023-01-19T12:57:55.163Z,7.43
2023-01-19T13:00:37.597Z,5.75
2023-01-19T13:03:48.163Z,7.10
2023-01-19T13:06:17.780Z,7.88
2023-01-19T13:09:00.990Z,12.75
2023-01-19T13:11:34.363Z,9.32
2023-01-19T13:14:38.911Z,12.02
2023-01-19T13:17:28.536Z,7.72
2023-01-19T13:20:27.324Z,9.05
2023-01-19T13:23:21.907Z,10.52
2023-01-19T13:26:02.817Z,13.57
2023-01-19T13:28:43.556Z,11.43
2023-01-19T13:31:13.445Z,11.52
2023-01-19T13:33:50.368Z,10.23
2023-01-19T13:36:28.657Z,11.45
2023-01-19T13:39:01.488Z,9.18
2023-01-19T13:41:32.684Z,11.00
2023-01-19T13:44:04.668Z,8.48
2023-01-19T13:46:34.319Z,8.90
2023-01-19T13:49:10.860Z,12.32
2023-01-19T13:51:39.402Z,10.38
2023-01-19T13:54:17.332Z,8.77
2023-01-19T13:56:50.188Z,9.82
2023-01-19T13:59:18.664Z,8.35
2023-01-19T14:01:49.263Z,9.10
2023-01-19T14:04:36.189Z,9.00
2023-01-19T14:07:13.954Z,10.35
2023-01-19T14:09:43.752Z,7.28
2023-01-19T14:12:15.015Z,7.65
2023-01-19T14:14:44.268Z,9.48
2023-01-19T14:17:25.592Z,13.00
2023-01-19T14:19:56.342Z,10.95
2023-01-19T14:22:40.876Z,7.78
2023-01-19T14:25:34.389Z,7.18
2023-01-19T14:28:39.485Z,16.60
2023-01-19T14:31:22.304Z,9.90
2023-01-19T14:33:53.045Z,10.00
2023-01-19T14:36:30.146Z,8.63
2023-01-19T14:39:01.919Z,9.35
2023-01-19T14:41:49.613Z,11.07
2023-01-19T14:44:26.006Z,9.60
2023-01-19T14:46:55.235Z,11.73
2023-01-19T14:49:34.763Z,14.45
2023-01-19T14:52:07.788Z,12.98
2023-01-19T14:54:40.322Z,13.27
2023-01-19T14:57:13.807Z,10.98
2023-01-19T14:59:42.318Z,12.60
2023-01-19T15:02:10.533Z,14.85
2023-01-19T15:04:38.905Z,16.42
2023-01-19T15:07:08.265Z,16.98
2023-01-19T15:09:36.703Z,18.70
2023-01-19T15:12:05.464Z,13.85
2023-01-19T15:14:35.361Z,10.77
2023-01-19T15:17:03.582Z,11.43
2023-01-19T15:19:31.888Z,13.07
2023-01-19T15:22:00.351Z,9.80
2023-01-19T15:24:28.598Z,12.00
2023-01-19T15:27:01.553Z,13.05
2023-01-19T15:29:32.120Z,15.48
2023-01-19T15:32:02.305Z,13.27
2023-01-19T15:34:31.651Z,11.05
2023-01-19T15:37:00.554Z,12.00
2023-01-19T15:39:28.842Z,15.73
2023-01-19T15:41:57.056Z,22.60
2023-01-19T15:44:25.372Z,12.43
2023-01-19T15:46:54.738Z,14.60
2023-01-19T15:49:24.482Z,10.07
2023-01-19T15:51:53.070Z,11.25
2023-01-19T15:54:21.408Z,12.48
2023-01-19T15:56:49.757Z,10.57
2023-01-19T15:59:18.164Z,14.05
2023-01-19T16:01:46.770Z,13.63
2023-01-19T16:04:17.822Z,10.32
2023-01-19T16:06:47.611Z,11.45
2023-01-19T16:09:18.495Z,14.20
2023-01-19T16:11:47.094Z,13.95
2023-01-19T16:14:17.408Z,11.15
2023-01-19T16:16:46.144Z,13.75
2023-01-19T16:19:16.569Z,13.18
2023-01-19T16:21:44.907Z,15.10
2023-01-19T16:24:14.705Z,9.90
2023-01-19T16:26:43.105Z,9.20
2023-01-19T16:29:11.844Z,10.90
2023-01-19T16:31:42.211Z,13.98
2023-01-19T16:34:11.398Z,12.10
2023-01-19T16:36:42.647Z,11.20
2023-01-19T16:39:15.228Z,12.23
2023-01-19T16:41:45.194Z,12.25
2023-01-19T16:44:14.898Z,13.35
2023-01-19T16:46:45.475Z,15.50
2023-01-19T16:49:16.464Z,22.35
2023-01-19T16:51:45.060Z,14.52
2023-01-19T16:54:16.842Z,11.60
2023-01-19T16:56:45.469Z,13.10
2023-01-19T16:59:15.979Z,13.30
2023-01-19T17:01:46.148Z,13.48
2023-01-19T17:04:15.263Z,13.88
2023-01-19T17:06:43.851Z,13.23
2023-01-19T17:09:12.285Z,12.18
2023-01-19T17:11:42.067Z,11.98
2023-01-19T17:14:14.301Z,12.73
2023-01-19T17:16:43.441Z,13.75
2023-01-19T17:19:16.401Z,20.38
2023-01-19T17:21:46.976Z,24.52
2023-01-19T17:24:15.714Z,15.00
2023-01-19T17:26:48.452Z,15.75
2023-01-19T17:29:17.634Z,15.07
2023-01-19T17:31:46.900Z,17.77
2023-01-19T17:34:15.245Z,15.85
2023-01-19T17:36:43.612Z,18.38
2023-01-19T17:39:16.748Z,13.80
2023-01-19T17:41:47.517Z,17.17
2023-01-19T17:44:17.208Z,13.80
2023-01-19T17:46:45.481Z,15.43
2023-01-19T17:49:13.793Z,13.85
2023-01-19T17:51:42.085Z,15.07
2023-01-19T17:54:10.941Z,14.00
2023-01-19T17:56:41.218Z,18.13
2023-01-19T17:59:10.923Z,14.68
2023-01-19T18:01:40.397Z,14.27
2023-01-19T18:04:10.253Z,14.15
2023-01-19T18:06:39.284Z,14.68
2023-01-19T18:09:08.239Z,14.77
2023-01-19T18:11:37.254Z,19.27
2023-01-19T18:14:06.639Z,14.80
2023-01-19T18:16:37.007Z,20.38
2023-01-19T18:19:05.423Z,19.77
2023-01-19T18:21:33.761Z,19.23
2023-01-19T18:24:04.282Z,18.45
2023-01-19T18:26:35.067Z,17.35
2023-01-19T18:29:03.966Z,20.90
2023-01-19T18:31:32.515Z,24.10
2023-01-19T18:34:02.255Z,25.83
2023-01-19T18:36:32.131Z,18.92
2023-01-19T18:39:00.548Z,17.02
2023-01-19T18:41:29.917Z,15.50
2023-01-19T18:43:59.585Z,19.25
2023-01-19T18:46:28.266Z,14.75
2023-01-19T18:48:56.489Z,20.23
2023-01-19T18:51:26.452Z,18.13
2023-01-19T18:53:54.913Z,20.40
2023-01-19T18:56:23.200Z,17.38
2023-01-19T18:58:52.234Z,18.23
2023-01-19T19:01:24.930Z,23.98
2023-01-19T19:03:53.755Z,19.20
2023-01-19T19:06:22.810Z,17.25
2023-01-19T19:08:53.577Z,21.75
2023-01-19T19:11:24.010Z,16.88
2023-01-19T19:13:58.254Z,26.48
2023-01-19T19:16:27.168Z,15.50
2023-01-19T19:18:55.592Z,19.45
2023-01-19T19:21:25.247Z,17.27
2023-01-19T19:23:57.081Z,17.70
2023-01-19T19:26:27.894Z,21.40
2023-01-19T19:28:56.354Z,21.23
2023-01-19T19:31:26.944Z,18.90
2023-01-19T19:33:56.977Z,25.00
2023-01-19T19:36:27.136Z,33.42
2023-01-19T19:38:56.965Z,31.77
2023-01-19T19:41:27.830Z,30.50
2023-01-19T19:43:56.790Z,28.40
2023-01-19T19:46:26.797Z,25.73
2023-01-19T19:48:55.373Z,21.25
2023-01-19T19:51:27.075Z,20.00
2023-01-19T19:53:59.617Z,25.08
2023-01-19T19:56:31.146Z,21.58
2023-01-19T19:59:00.963Z,24.17
2023-01-19T20:01:33.468Z,19.90
2023-01-19T20:04:07.979Z,18.55
2023-01-19T20:06:38.728Z,27.15
2023-01-19T20:09:12.729Z,23.13
2023-01-19T20:11:42.677Z,17.45
2023-01-19T20:14:14.140Z,23.55
2023-01-19T20:16:42.422Z,19.83
2023-01-19T20:19:11.809Z,23.65
2023-01-19T20:21:42.831Z,19.38
2023-01-19T20:24:16.080Z,20.13
2023-01-19T20:26:48.504Z,32.42
2023-01-19T20:29:17.064Z,35.35
2023-01-19T20:31:48.248Z,42.08
2023-01-19T20:34:19.577Z,33.45
2023-01-19T20:36:50.149Z,23.65
2023-01-19T20:39:20.934Z,22.02
2023-01-19T20:41:51.372Z,24.25
2023-01-19T20:44:22.494Z,22.17
2023-01-19T20:46:51.534Z,22.52
2023-01-19T20:49:20.179Z,19.60
2023-01-19T20:51:50.069Z,30.08
2023-01-19T20:54:23.146Z,22.33
2023-01-19T20:56:51.530Z,21.90
2023-01-19T20:59:20.428Z,22.85
2023-01-19T21:01:49.720Z,18.27
2023-01-19T21:04:18.567Z,19.08
2023-01-19T21:06:46.855Z,19.38
2023-01-19T21:09:15.185Z,19.05
2023-01-19T21:11:44.833Z,21.83
2023-01-19T21:14:13.160Z,18.63
2023-01-19T21:16:42.493Z,19.38
2023-01-19T21:19:11.928Z,16.88
2023-01-19T21:21:40.501Z,18.85
2023-01-19T21:24:11.168Z,23.27
2023-01-19T21:26:41.537Z,24.67
2023-01-19T21:29:13.977Z,19.10
2023-01-19T21:31:42.888Z,21.13
2023-01-19T21:36:39.718Z,17.73
2023-01-19T21:39:09.021Z,20.38
2023-01-19T21:41:39.762Z,17.48
2023-01-19T21:44:08.010Z,17.52
2023-01-19T21:46:37.756Z,24.60
2023-01-19T21:49:08.227Z,19.55
2023-01-19T21:51:38.159Z,22.85
2023-01-19T21:54:07.744Z,20.52
2023-01-19T21:56:37.800Z,18.70
2023-01-19T21:59:06.426Z,21.52
2023-01-19T22:01:37.190Z,18.90
2023-01-19T22:04:06.077Z,18.00
2023-01-19T22:06:34.755Z,22.40
2023-01-19T22:09:03.216Z,17.98
2023-01-19T22:11:32.406Z,17.23
2023-01-19T22:14:01.015Z,15.30
2023-01-19T22:16:30.561Z,17.95
2023-01-19T22:19:02.630Z,21.52
2023-01-19T22:21:34.956Z,33.53
2023-01-19T22:24:05.662Z,27.35
2023-01-19T22:26:40.142Z,19.55
2023-01-19T22:29:11.101Z,19.48
2023-01-19T22:31:41.436Z,22.88
2023-01-19T22:34:11.756Z,22.70
2023-01-19T22:36:40.232Z,18.23
2023-01-19T22:39:10.918Z,22.17
2023-01-19T22:41:41.828Z,21.70
2023-01-19T22:44:14.263Z,17.42
2023-01-19T22:46:43.175Z,18.05
2023-01-19T22:49:16.096Z,23.77
2023-01-19T22:51:45.550Z,19.30
2023-01-19T22:54:14.459Z,19.38
2023-01-19T22:56:43.172Z,21.58
2023-01-19T22:59:11.416Z,17.00
2023-01-19T23:01:42.029Z,17.63
2023-01-19T23:04:15.762Z,24.63
2023-01-19T23:06:46.845Z,19.15
2023-01-19T23:09:16.249Z,17.50
2023-01-19T23:11:50.039Z,19.67
2023-01-19T23:14:22.097Z,23.95
2023-01-19T23:16:50.545Z,20.25
2023-01-19T23:19:20.599Z,18.00
2023-01-19T23:21:52.247Z,18.38
2023-01-19T23:24:20.514Z,20.27
2023-01-19T23:26:50.330Z,19.40
2023-01-19T23:29:19.594Z,17.92
2023-01-19T23:31:49.864Z,19.40
2023-01-19T23:34:19.463Z,22.10
2023-01-19T23:36:47.730Z,18.30
2023-01-19T23:39:19.844Z,22.63
2023-01-19T23:41:49.140Z,18.92
2023-01-19T23:44:18.196Z,26.98
2023-01-19T23:46:47.057Z,33.05
2023-01-19T23:49:15.327Z,34.92
2023-01-19T23:51:45.033Z,28.15
2023-01-19T23:54:13.377Z,24.10
2023-01-19T23:56:42.585Z,24.35
2023-01-19T23:59:12.974Z,18.42
